Time;durP1;ratioP1;P1;durP2;ratioP2;P2;SDS_P1;SDS_P2;PMS_P1;PMS_P2;Temp;Humidity;BMP_temperature;BMP_pressure;BME280_temperature;BME280_humidity;BME280_pressure;Samples;Min_cycle;Max_cycle;Signal;HPM_P1;HPM_P2
2024/01/22 00:00:15;;;;;;;12.45;4.90;;;6.30;99.90;;;;;;5063435;28;20037;-67
2024/01/22 00:02:41;;;;;;;13.98;3.75;;;6.30;99.90;;;;;;5063217;28;20036;-73
2024/01/22 00:05:08;;;;;;;15.05;4.97;;;6.30;99.90;;;;;;5063016;28;20053;-68
2024/01/22 00:07:33;;;;;;;11.50;4.43;;;6.30;99.90;;;;;;5063187;28;20106;-68
2024/01/22 00:09:59;;;;;;;13.15;4.93;;;6.40;99.90;;;;;;5061399;28;20041;-67
2024/01/22 00:12:24;;;;;;;8.68;3.60;;;6.40;99.90;;;;;;5063211;28;20028;-69
2024/01/22 00:14:50;;;;;;;9.57;3.92;;;6.40;99.90;;;;;;5063123;28;20025;-70
2024/01/22 00:17:15;;;;;;;8.05;4.13;;;6.40;99.90;;;;;;5063152;28;20032;-68
2024/01/22 00:19:41;;;;;;;10.23;3.25;;;6.40;99.90;;;;;;5063340;28;20083;-70
2024/01/22 00:22:06;;;;;;;7.57;3.33;;;6.50;99.90;;;;;;5062836;28;20122;-68
2024/01/22 00:24:32;;;;;;;17.50;3.70;;;6.50;99.90;;;;;;5063065;28;20044;-70
2024/01/22 00:26:57;;;;;;;7.63;3.10;;;6.50;99.90;;;;;;5062376;28;20016;-70
2024/01/22 00:29:23;;;;;;;18.88;4.60;;;6.50;99.90;;;;;;5061004;28;20116;-67
2024/01/22 00:31:48;;;;;;;6.35;3.35;;;6.60;99.90;;;;;;5062932;28;20025;-69
2024/01/22 00:34:14;;;;;;;9.75;4.13;;;6.60;99.90;;;;;;5061337;28;20021;-70
2024/01/22 00:36:40;;;;;;;7.63;3.42;;;6.60;99.90;;;;;;5062452;28;20059;-70
2024/01/22 00:39:06;;;;;;;7.35;2.88;;;6.60;99.90;;;;;;5061337;28;20060;-69
2024/01/22 00:41:31;;;;;;;4.25;2.53;;;6.60;99.90;;;;;;5062797;28;20094;-69
2024/01/22 00:43:57;;;;;;;17.42;4.20;;;6.60;99.90;;;;;;5061698;28;21439;-70
2024/01/22 00:46:22;;;;;;;13.25;2.67;;;6.70;99.90;;;;;;5061129;28;20052;-69
2024/01/22 00:48:48;;;;;;;6.60;3.35;;;6.70;99.90;;;;;;5062515;28;20406;-69
2024/01/22 00:51:13;;;;;;;7.07;2.88;;;6.80;99.90;;;;;;5061272;28;20044;-68
2024/01/22 00:53:39;;;;;;;6.28;2.47;;;6.70;99.90;;;;;;5061356;28;20052;-70
2024/01/22 00:56:04;;;;;;;11.75;3.28;;;6.90;99.90;;;;;;5061495;28;20056;-71
2024/01/22 00:58:30;;;;;;;7.22;3.17;;;6.90;99.90;;;;;;5062421;28;20063;-68
2024/01/22 01:00:56;;;;;;;7.80;3.22;;;6.90;99.90;;;;;;5062452;28;20032;-67
2024/01/22 01:03:22;;;;;;;7.90;2.90;;;6.90;99.90;;;;;;5062290;28;20032;-69
2024/01/22 01:05:47;;;;;;;6.63;2.75;;;7.00;99.90;;;;;;5062113;28;20049;-72
2024/01/22 01:08:13;;;;;;;10.40;3.60;;;7.10;99.90;;;;;;5062322;28;20097;-69
2024/01/22 01:10:38;;;;;;;7.60;3.10;;;7.10;99.90;;;;;;5062071;28;20040;-69
2024/01/22 01:13:04;;;;;;;8.32;3.50;;;7.10;99.90;;;;;;5062187;28;20032;-69
2024/01/22 01:15:29;;;;;;;6.72;2.55;;;7.10;99.90;;;;;;5060891;28;20493;-70
2024/01/22 01:17:55;;;;;;;7.72;3.30;;;7.10;99.90;;;;;;5060145;28;20033;-72
2024/01/22 01:20:20;;;;;;;6.57;2.97;;;7.10;99.90;;;;;;5062298;28;20033;-70
2024/01/22 01:22:46;;;;;;;11.48;2.50;;;7.00;99.90;;;;;;5060590;28;20028;-71
2024/01/22 01:25:12;;;;;;;6.80;2.95;;;7.10;99.90;;;;;;5060878;28;20462;-70
2024/01/22 01:27:37;;;;;;;7.93;2.85;;;7.10;99.90;;;;;;5061749;28;20029;-69
2024/01/22 01:30:03;;;;;;;7.07;2.85;;;7.00;99.90;;;;;;5062145;28;20037;-69
2024/01/22 01:32:29;;;;;;;6.90;2.80;;;7.00;99.90;;;;;;5061895;28;20025;-70
2024/01/22 01:34:55;;;;;;;8.52;3.85;;;7.00;99.90;;;;;;5060535;28;20032;-70
2024/01/22 01:37:20;;;;;;;9.43;2.38;;;7.00;99.90;;;;;;5062375;28;20083;-71
2024/01/22 01:39:46;;;;;;;9.70;2.90;;;7.00;99.90;;;;;;5060603;28;20031;-69
2024/01/22 01:42:11;;;;;;;5.70;3.08;;;7.10;99.90;;;;;;5062147;28;20056;-70
2024/01/22 01:44:37;;;;;;;6.43;2.30;;;7.20;99.90;;;;;;5062207;28;20091;-69
2024/01/22 01:47:02;;;;;;;12.93;3.67;;;7.20;99.90;;;;;;5059503;28;20029;-70
2024/01/22 01:49:28;;;;;;;6.05;2.55;;;7.20;99.90;;;;;;5061437;28;20037;-69
2024/01/22 01:51:54;;;;;;;6.35;2.88;;;7.20;99.90;;;;;;5061000;28;20052;-69
2024/01/22 01:54:20;;;;;;;5.80;2.75;;;7.20;99.90;;;;;;5061817;28;20037;-71
2024/01/22 01:56:46;;;;;;;10.45;2.85;;;7.20;99.90;;;;;;5066022;28;20025;-71
2024/01/22 01:59:11;;;;;;;4.93;2.38;;;7.30;99.90;;;;;;5065924;28;20080;-69
2024/01/22 02:01:37;;;;;;;9.48;3.55;;;7.30;99.90;;;;;;5065576;28;20043;-70
2024/01/22 02:04:03;;;;;;;6.53;3.58;;;7.30;99.90;;;;;;5064356;28;20123;-68
2024/01/22 02:06:28;;;;;;;8.20;3.63;;;7.30;99.90;;;;;;5065356;28;20478;-66
2024/01/22 02:08:54;;;;;;;9.00;3.75;;;7.30;99.90;;;;;;5064410;28;20033;-69
2024/01/22 02:11:21;;;;;;;8.60;3.17;;;7.30;99.90;;;;;;5065747;28;20033;-71
2024/01/22 02:13:46;;;;;;;6.97;3.20;;;7.40;99.90;;;;;;5065081;28;20025;-69
2024/01/22 02:16:12;;;;;;;7.10;3.42;;;7.40;99.90;;;;;;5065508;28;20035;-70
2024/01/22 02:18:37;;;;;;;5.82;2.85;;;7.40;99.90;;;;;;5065483;28;20029;-68
2024/01/22 02:21:03;;;;;;;7.22;3.05;;;7.40;99.90;;;;;;5065081;28;20044;-69
2024/01/22 02:23:28;;;;;;;7.30;3.67;;;7.50;99.90;;;;;;5065433;28;20183;-67
2024/01/22 02:25:54;;;;;;;10.52;2.83;;;7.60;99.90;;;;;;5065189;28;20068;-69
2024/01/22 02:28:20;;;;;;;8.98;3.00;;;7.60;99.90;;;;;;5063624;28;20040;-68
2024/01/22 02:30:45;;;;;;;6.30;2.50;;;7.60;99.90;;;;;;5065343;28;20037;-69
2024/01/22 02:33:11;;;;;;;8.35;3.88;;;7.60;99.90;;;;;;5065201;28;20031;-68
2024/01/22 02:35:36;;;;;;;10.57;3.97;;;7.70;99.90;;;;;;5064887;28;20025;-70
2024/01/22 02:38:02;;;;;;;12.32;3.72;;;7.70;99.90;;;;;;5063825;28;20029;-69
2024/01/22 02:40:28;;;;;;;8.70;3.65;;;7.70;99.90;;;;;;5065142;28;20399;-70
2024/01/22 02:42:53;;;;;;;9.40;3.85;;;7.70;99.90;;;;;;5064555;28;20458;-73
2024/01/22 02:45:19;;;;;;;7.10;3.58;;;7.70;99.90;;;;;;5063870;28;20111;-69
2024/01/22 02:47:44;;;;;;;9.25;3.55;;;7.70;99.90;;;;;;5063469;28;20047;-69
2024/01/22 02:50:10;;;;;;;6.82;3.35;;;7.80;99.90;;;;;;5064501;28;20037;-68
2024/01/22 02:52:35;;;;;;;5.15;3.25;;;7.80;99.90;;;;;;5063198;28;20021;-69
2024/01/22 02:55:01;;;;;;;11.30;3.42;;;7.80;99.90;;;;;;5063954;28;20025;-69
2024/01/22 02:57:26;;;;;;;7.38;2.95;;;7.80;99.90;;;;;;5063269;28;20036;-70
2024/01/22 02:59:52;;;;;;;5.68;3.40;;;7.80;99.90;;;;;;5064813;28;20075;-70
2024/01/22 03:02:18;;;;;;;4.97;2.85;;;7.90;99.90;;;;;;5063286;28;20028;-69
2024/01/22 03:04:43;;;;;;;7.35;3.55;;;8.00;99.90;;;;;;5064414;28;20052;-71
2024/01/22 03:07:09;;;;;;;6.88;2.80;;;8.00;99.90;;;;;;5063917;28;20048;-69
2024/01/22 03:09:35;;;;;;;7.53;3.33;;;8.10;99.90;;;;;;5064244;28;20044;-69
2024/01/22 03:12:01;;;;;;;6.80;3.28;;;8.20;99.90;;;;;;5060848;28;20032;-69
2024/01/22 03:14:27;;;;;;;8.13;4.00;;;8.20;99.90;;;;;;5061980;28;20032;-71
2024/01/22 03:16:52;;;;;;;4.65;2.53;;;8.20;99.90;;;;;;5061589;28;20112;-71
2024/01/22 03:19:18;;;;;;;6.75;3.15;;;8.20;99.90;;;;;;5064063;28;20067;-70
2024/01/22 03:21:43;;;;;;;6.55;3.13;;;8.30;99.90;;;;;;5062430;28;20719;-68
2024/01/22 03:24:09;;;;;;;8.10;2.95;;;8.30;99.90;;;;;;5063853;28;20032;-72
2024/01/22 03:26:34;;;;;;;7.18;2.45;;;8.30;99.90;;;;;;5062672;28;20025;-69
2024/01/22 03:29:00;;;;;;;10.10;3.83;;;8.20;99.90;;;;;;5061705;28;20063;-71
2024/01/22 03:31:27;;;;;;;7.97;4.10;;;8.10;99.90;;;;;;5063141;28;20040;-69
2024/01/22 03:33:54;;;;;;;6.65;4.05;;;8.10;99.90;;;;;;5062906;28;20017;-69
2024/01/22 03:36:24;;;;;;;6.57;3.70;;;7.90;99.90;;;;;;5063588;28;20460;-69
2024/01/22 03:38:50;;;;;;;9.35;3.92;;;7.90;99.90;;;;;;5062019;28;20482;-69
2024/01/22 03:41:16;;;;;;;7.75;3.92;;;7.80;99.90;;;;;;5063981;28;20032;-71
2024/01/22 03:43:42;;;;;;;9.32;4.05;;;7.70;99.90;;;;;;5063937;28;20704;-71
2024/01/22 03:46:08;;;;;;;7.47;4.20;;;7.70;99.90;;;;;;5063144;28;20017;-69
2024/01/22 03:48:34;;;;;;;14.48;3.30;;;7.70;99.90;;;;;;5063679;28;20029;-70
2024/01/22 03:50:59;;;;;;;6.38;3.72;;;7.70;99.90;;;;;;5060750;28;20048;-70
2024/01/22 03:53:25;;;;;;;10.75;3.72;;;7.60;99.90;;;;;;5062259;28;20033;-71
2024/01/22 03:55:50;;;;;;;8.88;4.38;;;7.70;99.90;;;;;;5063781;28;20021;-69
2024/01/22 03:58:16;;;;;;;5.25;2.95;;;7.70;99.90;;;;;;5062827;28;20032;-70
2024/01/22 04:00:41;;;;;;;9.10;3.25;;;7.70;99.90;;;;;;5061894;28;20118;-70
2024/01/22 04:03:08;;;;;;;10.18;4.40;;;7.70;99.90;;;;;;5063339;28;20482;-68
2024/01/22 04:05:33;;;;;;;9.23;4.95;;;7.70;99.90;;;;;;5062652;28;20036;-69
2024/01/22 04:07:59;;;;;;;15.07;5.38;;;7.60;99.90;;;;;;5063205;28;20021;-70
2024/01/22 04:10:26;;;;;;;8.05;3.97;;;7.50;99.90;;;;;;5063176;28;20071;-71
2024/01/22 04:12:56;;;;;;;9.40;6.05;;;7.40;99.90;;;;;;5062625;28;20111;-69
2024/01/22 04:15:23;;;;;;;15.25;6.20;;;7.40;99.90;;;;;;5062997;28;20028;-70
2024/01/22 04:17:48;;;;;;;11.00;5.97;;;7.40;99.90;;;;;;5062073;28;20031;-69
2024/01/22 04:20:14;;;;;;;8.35;4.82;;;7.40;99.90;;;;;;5062310;28;20468;-71
2024/01/22 04:22:40;;;;;;;13.50;5.30;;;7.40;99.90;;;;;;5060971;28;20037;-73
2024/01/22 04:25:06;;;;;;;9.10;4.40;;;7.40;99.90;;;;;;5058129;28;20112;-70
2024/01/22 04:27:31;;;;;;;10.55;4.10;;;7.40;99.90;;;;;;5060912;28;20029;-71
2024/01/22 04:29:57;;;;;;;9.68;4.57;;;7.40;99.90;;;;;;5060128;28;20047;-69
2024/01/22 04:32:23;;;;;;;8.25;4.75;;;7.40;99.90;;;;;;5063148;28;20032;-70
2024/01/22 04:34:50;;;;;;;9.18;4.75;;;7.40;99.90;;;;;;5062294;28;20024;-70
2024/01/22 04:37:16;;;;;;;9.13;5.32;;;7.40;99.90;;;;;;5062392;28;20485;-70
2024/01/22 04:39:42;;;;;;;8.02;4.35;;;7.50;99.90;;;;;;5062176;28;20025;-68
2024/01/22 04:42:08;;;;;;;12.07;5.43;;;7.50;99.90;;;;;;5060370;28;20028;-68
2024/01/22 04:44:34;;;;;;;6.72;3.00;;;7.40;99.90;;;;;;5058552;28;20032;-69
2024/01/22 04:47:00;;;;;;;11.25;4.00;;;7.50;99.90;;;;;;5059985;28;20036;-73
2024/01/22 04:49:25;;;;;;;6.75;2.72;;;7.50;99.90;;;;;;5061541;28;20044;-69
2024/01/22 04:51:51;;;;;;;9.63;3.97;;;7.60;99.90;;;;;;5062017;28;20033;-73
2024/01/22 04:54:17;;;;;;;6.80;3.25;;;7.60;99.90;;;;;;5060833;28;21144;-70
2024/01/22 04:56:45;;;;;;;7.78;3.80;;;7.70;99.90;;;;;;5060035;28;20052;-70
2024/01/22 04:59:11;;;;;;;9.77;4.05;;;7.70;99.90;;;;;;5060479;28;20047;-69
2024/01/22 05:01:36;;;;;;;8.00;4.43;;;7.70;99.90;;;;;;5053653;28;20725;-69
2024/01/22 05:04:03;;;;;;;8.55;3.72;;;7.80;99.90;;;;;;5058588;28;20045;-72
2024/01/22 05:06:29;;;;;;;6.22;4.07;;;7.80;99.90;;;;;;5057316;28;20082;-67
2024/01/22 05:08:55;;;;;;;7.05;3.08;;;7.80;99.90;;;;;;5058673;28;20028;-68
2024/01/22 05:11:21;;;;;;;8.88;4.53;;;7.90;99.90;;;;;;5061521;28;20044;-70
2024/01/22 05:13:51;;;;;;;6.75;3.17;;;7.90;99.90;;;;;;5061841;28;20025;-71
2024/01/22 05:16:18;;;;;;;9.27;3.92;;;7.90;99.90;;;;;;5059213;28;20025;-69
2024/01/22 05:18:44;;;;;;;8.50;3.80;;;7.90;99.90;;;;;;5061693;28;20458;-70
2024/01/22 05:21:10;;;;;;;5.93;3.90;;;7.90;99.90;;;;;;5059584;28;20128;-71
2024/01/22 05:23:36;;;;;;;11.40;4.20;;;8.00;99.90;;;;;;5060237;28;20044;-70
2024/01/22 05:26:01;;;;;;;8.38;4.03;;;8.00;99.90;;;;;;5059140;28;20025;-69
2024/01/22 05:28:27;;;;;;;6.38;3.00;;;8.10;99.90;;;;;;5057802;28;20478;-71
2024/01/22 05:30:52;;;;;;;8.00;3.63;;;8.10;99.90;;;;;;5064324;28;20072;-70
2024/01/22 05:33:18;;;;;;;5.78;3.40;;;8.20;99.90;;;;;;5064445;28;20439;-69
2024/01/22 05:35:44;;;;;;;6.65;3.30;;;8.20;99.90;;;;;;5065422;28;20013;-67
2024/01/22 05:38:09;;;;;;;7.93;3.50;;;8.20;99.90;;;;;;5065823;28;20036;-69
2024/01/22 05:40:35;;;;;;;9.32;4.20;;;8.30;99.90;;;;;;5065195;28;20104;-69
2024/01/22 05:43:00;;;;;;;6.65;3.95;;;8.30;99.90;;;;;;5066069;28;20025;-73
2024/01/22 05:45:26;;;;;;;10.27;5.22;;;8.30;99.90;;;;;;5063472;28;20032;-69
2024/01/22 05:47:51;;;;;;;6.45;3.42;;;8.30;99.90;;;;;;5065418;28;20017;-71
2024/01/22 05:50:17;;;;;;;8.43;3.15;;;8.40;99.90;;;;;;5065322;28;20041;-72
2024/01/22 05:52:43;;;;;;;15.65;5.97;;;8.40;99.90;;;;;;5065763;28;20122;-68
2024/01/22 05:55:08;;;;;;;10.80;5.13;;;8.50;99.90;;;;;;5064740;28;20029;-69
2024/01/22 05:57:34;;;;;;;12.75;5.68;;;8.60;99.90;;;;;;5065573;28;20049;-69
2024/01/22 05:59:59;;;;;;;8.43;3.60;;;8.60;99.90;;;;;;5063037;28;20075;-69
2024/01/22 06:02:25;;;;;;;7.50;4.13;;;8.70;99.90;;;;;;5062089;28;20039;-69
2024/01/22 06:04:51;;;;;;;7.20;3.63;;;8.80;99.90;;;;;;5059184;28;20136;-71
2024/01/22 06:07:17;;;;;;;10.85;4.60;;;8.80;99.90;;;;;;5060725;28;20025;-69
2024/01/22 06:09:43;;;;;;;13.80;5.45;;;8.80;99.90;;;;;;5062437;28;20037;-71
2024/01/22 06:12:08;;;;;;;8.57;4.70;;;8.90;99.90;;;;;;5060081;28;20039;-68
2024/01/22 06:14:34;;;;;;;9.52;4.55;;;8.90;99.90;;;;;;5061147;28;20027;-68
2024/01/22 06:17:00;;;;;;;8.65;3.30;;;8.90;99.90;;;;;;5061639;28;20036;-71
2024/01/22 06:19:25;;;;;;;6.68;3.20;;;9.00;99.90;;;;;;5064892;28;20051;-70
2024/01/22 06:21:54;;;;;;;11.57;4.85;;;9.00;99.90;;;;;;5063362;28;20028;-71
2024/01/22 06:24:20;;;;;;;7.80;3.45;;;9.00;99.90;;;;;;5064808;28;20048;-71
2024/01/22 06:26:45;;;;;;;7.15;3.90;;;9.00;99.90;;;;;;5063113;28;20036;-73
2024/01/22 06:29:13;;;;;;;13.52;4.68;;;9.00;99.90;;;;;;5063008;28;20068;-71
2024/01/22 06:31:41;;;;;;;7.93;4.75;;;9.00;99.90;;;;;;5063912;28;20572;-69
2024/01/22 06:34:06;;;;;;;5.80;4.32;;;9.00;99.90;;;;;;5064394;28;20100;-68
2024/01/22 06:36:32;;;;;;;9.75;3.92;;;9.00;99.90;;;;;;5064494;28;20379;-67
2024/01/22 06:38:57;;;;;;;9.15;3.63;;;9.00;99.90;;;;;;5063400;28;20033;-70
2024/01/22 06:41:25;;;;;;;6.43;4.25;;;9.10;99.90;;;;;;5063943;28;20025;-69
2024/01/22 06:43:51;;;;;;;5.53;3.63;;;9.10;99.90;;;;;;5061577;28;20027;-70
2024/01/22 06:46:16;;;;;;;7.85;3.78;;;9.20;99.90;;;;;;5063265;28;20057;-71
2024/01/22 06:48:42;;;;;;;6.65;3.70;;;9.20;99.90;;;;;;5062895;28;20021;-67
2024/01/22 06:51:11;;;;;;;4.43;3.42;;;9.30;99.90;;;;;;5060682;28;20044;-68
2024/01/22 06:53:37;;;;;;;3.92;2.65;;;9.30;99.90;;;;;;5062111;28;20032;-68
2024/01/22 06:56:03;;;;;;;8.25;4.55;;;9.30;99.90;;;;;;5063955;28;20033;-67
2024/01/22 06:58:28;;;;;;;8.10;4.43;;;9.40;99.90;;;;;;5063505;28;20045;-67
2024/01/22 07:00:54;;;;;;;5.72;3.90;;;9.40;99.90;;;;;;5063371;28;20027;-69
2024/01/22 07:03:22;;;;;;;10.23;4.80;;;9.40;99.90;;;;;;5064644;28;20021;-71
2024/01/22 07:05:48;;;;;;;6.72;4.78;;;9.40;99.90;;;;;;5063785;28;20056;-68
2024/01/22 07:08:14;;;;;;;7.28;4.53;;;9.40;99.90;;;;;;5063800;28;20029;-67
2024/01/22 07:10:40;;;;;;;9.52;4.63;;;9.40;99.90;;;;;;5064522;28;20033;-70
2024/01/22 07:13:07;;;;;;;7.38;4.75;;;9.40;99.90;;;;;;5064096;28;20017;-67
2024/01/22 07:15:32;;;;;;;7.28;4.50;;;9.40;99.90;;;;;;5060504;28;20029;-68
2024/01/22 07:17:58;;;;;;;7.10;4.28;;;9.50;99.90;;;;;;5064265;28;20076;-67
2024/01/22 07:20:24;;;;;;;10.30;5.15;;;9.50;99.90;;;;;;5061964;28;20048;-67
2024/01/22 07:22:49;;;;;;;10.15;5.78;;;9.50;99.90;;;;;;5060724;28;20074;-67
2024/01/22 07:25:16;;;;;;;7.60;4.35;;;9.50;99.90;;;;;;5062445;28;20056;-67
2024/01/22 07:27:42;;;;;;;7.32;4.82;;;9.50;99.90;;;;;;5061917;28;20032;-69
2024/01/22 07:30:11;;;;;;;10.07;5.97;;;9.60;99.90;;;;;;5060743;28;20481;-66
2024/01/22 07:32:38;;;;;;;8.05;5.47;;;9.60;99.90;;;;;;5058842;28;20108;-66
2024/01/22 07:35:09;;;;;;;4.70;2.92;;;9.60;99.90;;;;;;5060749;28;20060;-70
2024/01/22 07:37:36;;;;;;;7.05;4.05;;;9.60;99.90;;;;;;5060854;28;20033;-69
2024/01/22 07:40:05;;;;;;;7.40;4.75;;;9.70;99.90;;;;;;5062535;28;20021;-67
2024/01/22 07:42:33;;;;;;;6.90;4.68;;;9.70;99.90;;;;;;5062969;28;20028;-68
2024/01/22 07:44:58;;;;;;;8.98;5.45;;;9.70;99.90;;;;;;5063924;28;20044;-66
2024/01/22 07:47:24;;;;;;;6.25;3.78;;;9.70;99.90;;;;;;5059141;28;20029;-70
2024/01/22 07:49:49;;;;;;;10.23;5.50;;;9.70;99.90;;;;;;5061765;28;20067;-70
2024/01/22 07:52:15;;;;;;;6.57;3.83;;;9.70;99.90;;;;;;5063616;28;20058;-66
2024/01/22 07:54:41;;;;;;;9.15;4.93;;;9.80;99.90;;;;;;5062149;28;20471;-69
2024/01/22 07:57:10;;;;;;;10.43;5.05;;;9.80;99.90;;;;;;5060567;28;20025;-68
2024/01/22 07:59:37;;;;;;;10.10;4.50;;;9.90;99.90;;;;;;5062343;28;20389;-67
2024/01/22 08:02:04;;;;;;;9.18;4.38;;;9.90;99.90;;;;;;5060029;28;20111;-70
2024/01/22 08:04:30;;;;;;;3.08;2.15;;;9.90;99.90;;;;;;5060065;28;20038;-67
2024/01/22 08:06:55;;;;;;;6.03;3.22;;;10.00;99.90;;;;;;5061639;28;20976;-68
2024/01/22 08:09:21;;;;;;;8.35;3.80;;;10.00;99.90;;;;;;5060014;28;20040;-68
2024/01/22 08:11:47;;;;;;;6.90;3.53;;;10.00;99.90;;;;;;5061910;28;20112;-67
2024/01/22 08:14:13;;;;;;;3.92;2.38;;;9.90;99.90;;;;;;5060542;28;20025;-69
2024/01/22 08:16:39;;;;;;;6.88;3.22;;;10.00;99.90;;;;;;5061327;28;20393;-66
2024/01/22 08:19:05;;;;;;;5.15;2.75;;;10.00;99.90;;;;;;5062745;28;20896;-67
2024/01/22 08:21:31;;;;;;;5.55;2.58;;;10.00;99.90;;;;;;5062085;28;20029;-67
2024/01/22 08:23:57;;;;;;;5.82;2.20;;;10.00;99.90;;;;;;5059783;28;20052;-68
2024/01/22 08:26:22;;;;;;;4.30;1.92;;;10.10;99.90;;;;;;5062786;28;20032;-68
2024/01/22 08:28:48;;;;;;;4.38;2.60;;;10.10;99.90;;;;;;5062858;28;20027;-68
2024/01/22 08:31:13;;;;;;;7.40;2.40;;;10.20;99.90;;;;;;5062144;28;20135;-66
2024/01/22 08:33:39;;;;;;;8.00;2.30;;;10.20;99.90;;;;;;5057523;28;20110;-67
2024/01/22 08:36:05;;;;;;;4.50;2.20;;;10.20;99.90;;;;;;5059387;28;20096;-69
2024/01/22 08:38:30;;;;;;;7.07;2.15;;;10.30;99.90;;;;;;5055922;28;20033;-68
2024/01/22 08:40:56;;;;;;;7.90;2.40;;;10.30;99.90;;;;;;5058114;28;20033;-65
2024/01/22 08:43:22;;;;;;;6.80;2.40;;;10.30;99.90;;;;;;5059682;28;20037;-67
2024/01/22 08:45:47;;;;;;;8.40;1.73;;;10.30;99.90;;;;;;5060126;28;20043;-67
2024/01/22 08:48:13;;;;;;;5.32;2.10;;;10.30;99.90;;;;;;5059620;28;20021;-66
2024/01/22 08:50:39;;;;;;;8.82;2.40;;;10.40;99.90;;;;;;5055374;28;20090;-68
2024/01/22 08:53:04;;;;;;;10.48;2.58;;;10.40;99.90;;;;;;5058943;28;20025;-66
2024/01/22 08:55:30;;;;;;;11.00;2.55;;;10.50;99.90;;;;;;5060576;28;20048;-65
2024/01/22 08:57:55;;;;;;;7.22;2.30;;;10.60;99.90;;;;;;5061795;28;20032;-67
2024/01/22 09:00:21;;;;;;;12.25;2.88;;;10.60;99.90;;;;;;5060640;28;20025;-67
2024/01/22 09:02:47;;;;;;;7.32;2.65;;;10.70;99.90;;;;;;5058445;28;20045;-68
2024/01/22 09:05:13;;;;;;;4.47;2.05;;;10.60;99.90;;;;;;5056979;28;20603;-69
2024/01/22 09:07:39;;;;;;;8.85;2.60;;;10.50;99.90;;;;;;5056453;28;20036;-68
2024/01/22 09:10:07;;;;;;;4.57;1.65;;;10.40;99.90;;;;;;5059420;28;20037;-68
2024/01/22 09:12:36;;;;;;;7.53;2.58;;;10.40;99.90;;;;;;5060125;28;20064;-67
2024/01/22 09:15:03;;;;;;;8.23;2.92;;;10.30;99.90;;;;;;5060055;28;20029;-69
2024/01/22 09:17:29;;;;;;;7.20;2.22;;;10.40;99.90;;;;;;5057604;28;20052;-66
2024/01/22 09:19:56;;;;;;;7.40;2.25;;;10.40;99.90;;;;;;5056241;28;20051;-68
2024/01/22 09:22:23;;;;;;;16.35;3.42;;;10.30;99.90;;;;;;5059723;28;20029;-68
2024/01/22 09:24:49;;;;;;;13.00;3.50;;;10.30;99.90;;;;;;5059945;28;20487;-68
2024/01/22 09:27:14;;;;;;;7.00;2.40;;;10.30;99.90;;;;;;5059154;28;20017;-69
2024/01/22 09:29:41;;;;;;;7.78;2.65;;;10.30;99.90;;;;;;5054456;28;20033;-71
2024/01/22 09:32:08;;;;;;;7.38;2.78;;;10.20;99.90;;;;;;5056687;28;20706;-70
2024/01/22 09:34:34;;;;;;;9.10;2.83;;;10.20;99.90;;;;;;5061265;28;20035;-67
2024/01/22 09:36:59;;;;;;;7.78;2.97;;;10.20;99.90;;;;;;5056808;28;20542;-70
2024/01/22 09:39:25;;;;;;;6.97;2.65;;;10.20;99.90;;;;;;5056322;28;20026;-68
2024/01/22 09:41:51;;;;;;;7.38;2.40;;;10.20;99.90;;;;;;5060306;28;20028;-68
2024/01/22 09:44:17;;;;;;;4.75;2.80;;;10.20;99.90;;;;;;5060288;28;20434;-67
2024/01/22 09:46:43;;;;;;;10.25;2.47;;;10.20;99.90;;;;;;5061979;28;20064;-69
2024/01/22 09:49:09;;;;;;;7.25;3.00;;;10.10;99.90;;;;;;5061721;28;20024;-67
2024/01/22 09:51:35;;;;;;;7.38;2.40;;;10.10;99.90;;;;;;5060351;28;20080;-67
2024/01/22 09:54:08;;;;;;;8.93;2.47;;;10.20;99.90;;;;;;5061434;28;20155;-70
2024/01/22 09:56:36;;;;;;;6.95;2.97;;;10.10;99.90;;;;;;5060454;28;20068;-67
2024/01/22 09:59:11;;;;;;;11.05;2.70;;;10.10;99.90;;;;;;5061502;28;20092;-67
2024/01/22 10:01:38;;;;;;;7.00;3.10;;;10.10;99.90;;;;;;5060775;28;20512;-67
2024/01/22 10:04:05;;;;;;;6.65;2.60;;;10.10;99.90;;;;;;5061777;28;20041;-67
2024/01/22 10:06:33;;;;;;;8.30;2.83;;;10.10;99.90;;;;;;5059656;28;20087;-70
2024/01/22 10:08:59;;;;;;;8.02;4.03;;;10.10;99.90;;;;;;5061643;28;20017;-66
2024/01/22 10:11:27;;;;;;;12.00;3.50;;;10.20;99.90;;;;;;5060380;28;20045;-69
2024/01/22 10:13:54;;;;;;;6.15;2.83;;;10.20;99.90;;;;;;5061531;28;20045;-69
2024/01/22 10:16:28;;;;;;;8.80;3.60;;;10.20;99.90;;;;;;5062240;28;20035;-68
2024/01/22 10:19:04;;;;;;;5.35;2.25;;;10.20;99.90;;;;;;5063776;28;20032;-70
2024/01/22 10:21:29;;;;;;;9.48;2.80;;;10.20;99.90;;;;;;5059206;28;20056;-66
2024/01/22 10:24:06;;;;;;;7.47;2.03;;;10.20;99.90;;;;;;5053872;28;20028;-71
2024/01/22 10:26:32;;;;;;;6.68;2.38;;;10.20;99.90;;;;;;5062390;28;20017;-68
2024/01/22 10:29:16;;;;;;;9.15;2.03;;;10.20;99.90;;;;;;5061844;28;20025;-69
2024/01/22 10:31:54;;;;;;;12.00;2.57;;;10.20;99.90;;;;;;5060378;28;20033;-67
2024/01/22 10:34:21;;;;;;;11.32;2.58;;;10.20;99.90;;;;;;5064613;28;20017;-69
2024/01/22 10:37:12;;;;;;;14.35;3.15;;;10.10;99.90;;;;;;5065387;28;20021;-68
2024/01/22 10:39:39;;;;;;;15.63;2.45;;;10.10;99.90;;;;;;5063783;28;20033;-69
2024/01/22 10:42:12;;;;;;;13.20;2.25;;;10.00;99.90;;;;;;5064505;28;20021;-68
2024/01/22 10:44:39;;;;;;;11.25;2.53;;;9.90;99.90;;;;;;5063264;28;20044;-68
2024/01/22 10:47:06;;;;;;;13.68;2.53;;;9.90;99.90;;;;;;5064350;28;20017;-66
2024/01/22 10:49:32;;;;;;;15.43;2.72;;;9.80;99.90;;;;;;5062207;28;20097;-68
2024/01/22 10:51:59;;;;;;;13.40;2.60;;;9.80;99.90;;;;;;5063608;28;20059;-68
2024/01/22 10:54:29;;;;;;;17.52;3.03;;;9.80;99.90;;;;;;5063020;28;20382;-68
2024/01/22 10:57:15;;;;;;;11.88;2.30;;;9.80;99.90;;;;;;5061904;28;20071;-68
2024/01/22 10:59:46;;;;;;;17.90;2.95;;;9.80;99.90;;;;;;5063850;28;20033;-67
2024/01/22 11:02:20;;;;;;;17.27;2.60;;;9.80;99.90;;;;;;5063983;28;20040;-68
2024/01/22 11:04:47;;;;;;;27.15;3.05;;;9.80;99.90;;;;;;5064198;28;20041;-68
2024/01/22 11:07:12;;;;;;;20.42;2.95;;;9.80;99.90;;;;;;5064382;28;20540;-66
2024/01/22 11:09:39;;;;;;;18.52;3.15;;;9.80;99.90;;;;;;5064142;28;20037;-67
2024/01/22 11:12:12;;;;;;;12.85;2.40;;;9.80;99.90;;;;;;5060719;28;20040;-66
2024/01/22 11:14:40;;;;;;;16.70;2.88;;;9.80;99.90;;;;;;5061085;28;20041;-67
2024/01/22 11:17:06;;;;;;;14.43;2.88;;;9.80;99.90;;;;;;5060484;28;20473;-69
2024/01/22 11:19:33;;;;;;;15.63;3.30;;;9.90;99.90;;;;;;5061917;28;20025;-65
2024/01/22 11:21:58;;;;;;;17.83;3.55;;;10.00;99.90;;;;;;5062343;28;20068;-67
2024/01/22 11:24:24;;;;;;;18.98;3.10;;;10.10;99.90;;;;;;5059752;28;20021;-66
2024/01/22 11:26:50;;;;;;;14.70;2.78;;;10.20;99.90;;;;;;5063459;28;20033;-68
2024/01/22 11:29:23;;;;;;;15.98;3.85;;;10.20;99.90;;;;;;5057740;28;20074;-68
2024/01/22 11:31:49;;;;;;;22.50;3.25;;;10.10;99.90;;;;;;5063507;28;20386;-68
2024/01/22 11:34:40;;;;;;;25.05;3.47;;;10.10;99.90;;;;;;5064097;28;20033;-67
2024/01/22 11:37:07;;;;;;;21.80;3.58;;;10.10;99.90;;;;;;5058169;28;20029;-67
2024/01/22 11:39:33;;;;;;;18.92;3.58;;;10.00;99.90;;;;;;5060375;28;20021;-67
2024/01/22 11:41:59;;;;;;;25.48;4.38;;;10.00;99.90;;;;;;5059151;28;20049;-67
2024/01/22 11:44:26;;;;;;;24.80;3.80;;;10.00;99.90;;;;;;5056990;28;20466;-68
2024/01/22 11:47:10;;;;;;;30.45;4.32;;;10.00;99.90;;;;;;5058749;28;20024;-68
2024/01/22 11:49:36;;;;;;;33.28;5.25;;;10.00;99.90;;;;;;5062125;28;20045;-67
2024/01/22 11:52:20;;;;;;;38.67;6.03;;;10.00;99.90;;;;;;5062721;28;20044;-66
2024/01/22 11:54:55;;;;;;;32.95;4.50;;;10.00;99.90;;;;;;5062235;28;20031;-68
2024/01/22 11:57:22;;;;;;;40.60;5.53;;;10.00;99.90;;;;;;5062300;28;20067;-68
2024/01/22 12:00:21;;;;;;;38.58;5.30;;;10.00;99.90;;;;;;5060135;28;20405;-67
2024/01/22 12:02:49;;;;;;;35.88;5.20;;;10.10;99.90;;;;;;5039451;28;20037;-68
2024/01/22 12:05:18;;;;;;;37.42;5.68;;;10.00;99.90;;;;;;5060300;28;20053;-67
2024/01/22 12:07:49;;;;;;;34.67;5.57;;;9.90;99.90;;;;;;5061460;28;20040;-65
2024/01/22 12:10:25;;;;;;;28.52;5.00;;;9.90;99.90;;;;;;5062131;28;20304;-69
2024/01/22 12:13:04;;;;;;;40.63;6.03;;;9.80;99.90;;;;;;5061672;28;20033;-67
2024/01/22 12:15:32;;;;;;;38.83;5.82;;;9.80;99.90;;;;;;5060046;28;20027;-65
2024/01/22 12:17:58;;;;;;;35.00;5.25;;;9.80;99.90;;;;;;5058541;28;20024;-67
2024/01/22 12:20:25;;;;;;;41.85;5.80;;;9.80;99.90;;;;;;5057114;28;20101;-68
2024/01/22 12:22:57;;;;;;;35.63;5.32;;;9.80;99.90;;;;;;5059647;28;20077;-68
2024/01/22 12:25:41;;;;;;;34.95;6.28;;;10.00;99.90;;;;;;5061717;28;20029;-70
2024/01/22 12:28:11;;;;;;;39.40;6.45;;;10.00;99.90;;;;;;5060410;28;20085;-67
2024/01/22 12:30:38;;;;;;;33.55;4.70;;;10.00;99.90;;;;;;5061319;28;20033;-67
2024/01/22 12:33:04;;;;;;;36.28;6.13;;;10.10;99.90;;;;;;5061236;28;20028;-68
2024/01/22 12:35:29;;;;;;;38.85;5.10;;;10.10;99.90;;;;;;5062154;28;20044;-68
2024/01/22 12:37:55;;;;;;;34.28;5.88;;;10.10;99.90;;;;;;5060825;28;20020;-67
2024/01/22 12:40:23;;;;;;;41.72;6.43;;;10.10;99.90;;;;;;5060159;28;20021;-67
2024/01/22 12:42:50;;;;;;;32.92;4.72;;;10.10;99.90;;;;;;5054601;28;20021;-68
2024/01/22 12:45:24;;;;;;;29.88;5.05;;;10.10;99.90;;;;;;5058484;28;20123;-70
2024/01/22 12:47:50;;;;;;;29.80;5.15;;;10.10;99.90;;;;;;5060101;28;20093;-68